createdAt,value
2019-03-22T00:06:22.032Z,9.30
2019-03-22T00:16:27.946Z,9.40
2019-03-22T00:26:33.538Z,9.30
2019-03-22T00:36:39.241Z,9.10
2019-03-22T00:46:44.943Z,9.10
2019-03-22T00:56:50.606Z,9.10
2019-03-22T01:06:56.700Z,9.10
2019-03-22T01:17:02.550Z,9.20
2019-03-22T01:27:08.658Z,9.10
2019-03-22T01:37:14.495Z,8.90
2019-03-22T01:47:20.274Z,8.40
2019-03-22T01:57:26.415Z,8.20
2019-03-22T02:07:32.714Z,8.40
2019-03-22T02:17:38.638Z,8.40
2019-03-22T02:27:45.250Z,8.40
2019-03-22T02:37:51.269Z,8.20
2019-03-22T02:47:57.102Z,8.20
2019-03-22T02:58:19.153Z,8.10
2019-03-22T03:08:11.167Z,8.10
2019-03-22T03:18:17.111Z,8.00
2019-03-22T03:28:35.930Z,8.00
2019-03-22T03:38:30.471Z,8.00
2019-03-22T03:48:36.276Z,7.90
2019-03-22T03:58:52.113Z,7.80
2019-03-22T04:08:49.972Z,7.80
2019-03-22T04:18:56.088Z,7.80
2019-03-22T04:29:07.956Z,7.80
2019-03-22T04:39:10.246Z,7.70
2019-03-22T04:49:17.454Z,7.70
2019-03-22T04:59:24.431Z,7.50
2019-03-22T05:09:32.795Z,7.50
2019-03-22T05:19:41.790Z,7.40
2019-03-22T05:29:48.848Z,7.40
2019-03-22T05:39:54.651Z,7.30
2019-03-22T05:50:01.264Z,7.30
2019-03-22T06:00:07.260Z,7.40
2019-03-22T06:10:13.173Z,7.40
2019-03-22T06:20:19.362Z,7.50
2019-03-22T06:30:25.187Z,7.50
2019-03-22T06:40:31.294Z,7.80
2019-03-22T06:50:37.399Z,8.00
2019-03-22T07:00:43.771Z,8.20
2019-03-22T07:10:49.662Z,8.30
2019-03-22T07:20:55.572Z,8.70
2019-03-22T07:31:01.371Z,9.00
2019-03-22T07:41:07.276Z,9.30
2019-03-22T07:51:13.810Z,9.70
2019-03-22T08:01:19.800Z,10.10
2019-03-22T08:11:25.871Z,10.50
2019-03-22T08:21:31.754Z,10.90
2019-03-22T08:31:37.555Z,11.30
2019-03-22T08:41:43.891Z,11.70
2019-03-22T08:51:49.931Z,12.10
2019-03-22T09:01:55.864Z,12.40
2019-03-22T09:12:02.826Z,12.70
2019-03-22T09:22:08.981Z,13.10
2019-03-22T09:32:15.062Z,13.60
2019-03-22T09:42:21.159Z,14.00
2019-03-22T09:52:27.041Z,14.50
2019-03-22T10:02:33.204Z,14.90
2019-03-22T10:12:39.136Z,15.40
2019-03-22T10:22:45.181Z,16.10
2019-03-22T10:32:51.088Z,16.70
2019-03-22T10:42:56.938Z,17.60
2019-03-22T10:53:02.747Z,19.00
2019-03-22T11:03:08.601Z,20.90
2019-03-22T11:13:15.170Z,22.40
2019-03-22T11:23:21.089Z,23.50
2019-03-22T11:33:27.140Z,24.60
2019-03-22T11:43:32.969Z,25.00
2019-03-22T11:53:38.784Z,25.90
2019-03-22T12:03:44.867Z,26.70
2019-03-22T12:13:51.029Z,26.70
2019-03-22T12:23:57.184Z,27.80
2019-03-22T12:34:04.253Z,27.80
2019-03-22T12:44:10.455Z,28.20
2019-03-22T12:54:16.261Z,29.60
2019-03-22T13:04:22.873Z,29.30
2019-03-22T13:14:28.725Z,29.40
2019-03-22T13:24:34.598Z,30.60
2019-03-22T13:34:40.740Z,31.10
2019-03-22T13:44:46.644Z,32.00
2019-03-22T13:54:52.597Z,32.60
2019-03-22T14:04:58.489Z,33.10
2019-03-22T14:15:04.643Z,33.10
2019-03-22T14:25:10.856Z,33.40
2019-03-22T14:35:16.736Z,32.50
2019-03-22T14:45:23.150Z,33.70
2019-03-22T14:55:27.940Z,34.20
2019-03-22T15:05:33.838Z,34.40
2019-03-22T15:15:51.052Z,35.40
2019-03-22T15:26:28.462Z,37.10
2019-03-22T15:37:02.374Z,36.90
2019-03-22T15:47:08.333Z,35.90
2019-03-22T15:57:14.576Z,34.50
2019-03-22T16:07:20.531Z,33.10
2019-03-22T16:17:26.616Z,33.80
2019-03-22T16:27:32.792Z,30.10
2019-03-22T16:37:38.719Z,26.40
2019-03-22T16:47:44.657Z,24.70
2019-03-22T16:57:50.523Z,23.60
2019-03-22T17:07:56.340Z,22.90
2019-03-22T17:18:02.180Z,22.30
2019-03-22T17:28:08.108Z,21.80
2019-03-22T17:38:13.974Z,21.30
2019-03-22T17:48:20.391Z,20.60
2019-03-22T17:58:26.232Z,20.10
2019-03-22T18:08:32.319Z,19.60
2019-03-22T18:18:38.122Z,19.30
2019-03-22T18:28:44.174Z,18.90
2019-03-22T18:38:50.271Z,18.60
2019-03-22T18:48:56.310Z,18.20
2019-03-22T18:59:02.464Z,18.10
2019-03-22T19:09:09.237Z,18.00
2019-03-22T19:19:15.602Z,17.80
2019-03-22T19:29:21.426Z,17.70
2019-03-22T19:39:27.350Z,17.60
2019-03-22T19:49:33.428Z,17.50
2019-03-22T19:59:39.493Z,17.30
2019-03-22T20:09:45.360Z,17.20
2019-03-22T20:19:51.161Z,16.90
2019-03-22T20:29:56.963Z,16.40
2019-03-22T20:40:03.230Z,16.00
2019-03-22T20:50:09.460Z,15.70
2019-03-22T21:00:16.191Z,15.20
2019-03-22T21:10:21.840Z,14.90
2019-03-22T21:20:27.743Z,14.60
2019-03-22T21:30:33.772Z,14.20
2019-03-22T21:40:39.666Z,14.00
2019-03-22T21:50:45.549Z,13.70
2019-03-22T22:00:51.668Z,13.50
2019-03-22T22:11:00.001Z,13.10
2019-03-22T22:21:05.140Z,12.90
2019-03-22T22:31:11.043Z,12.70
2019-03-22T22:41:16.941Z,12.30
2019-03-22T22:51:23.062Z,11.90
2019-03-22T23:01:29.169Z,11.80
2019-03-22T23:11:35.303Z,11.60
2019-03-22T23:21:41.124Z,11.60
2019-03-22T23:31:49.132Z,11.60
2019-03-22T23:41:54.540Z,11.30
2019-03-22T23:52:00.360Z,11.30
